createdAt,value
2023-04-10T00:01:22.439Z,10.05
2023-04-10T00:04:26.129Z,10.06
2023-04-10T00:07:30.249Z,9.97
2023-04-10T00:10:33.868Z,10.04
2023-04-10T00:13:39.201Z,10.09
2023-04-10T00:16:42.947Z,10.10
2023-04-10T00:19:47.705Z,10.05
2023-04-10T00:22:51.417Z,10.08
2023-04-10T00:25:55.553Z,10.09
2023-04-10T00:29:00.708Z,10.08
2023-04-10T00:32:05.078Z,9.95
2023-04-10T00:35:10.097Z,9.84
2023-04-10T00:38:14.244Z,9.80
2023-04-10T00:41:17.998Z,9.70
2023-04-10T00:44:23.822Z,9.73
2023-04-10T00:47:28.542Z,9.49
2023-04-10T00:50:32.579Z,9.55
2023-04-10T00:53:36.347Z,9.50
2023-04-10T00:56:41.186Z,9.55
2023-04-10T00:59:48.652Z,9.47
2023-04-10T01:02:52.998Z,9.46
2023-04-10T01:06:05.648Z,9.61
2023-04-10T01:09:17.142Z,9.48
2023-04-10T01:12:39.595Z,9.12
2023-04-10T01:15:53.717Z,9.35
2023-04-10T01:19:04.988Z,9.50
2023-04-10T01:22:13.710Z,9.57
2023-04-10T01:25:34.550Z,9.73
2023-04-10T01:28:54.740Z,9.62
2023-04-10T01:32:03.963Z,9.65
2023-04-10T01:35:09.785Z,9.70
2023-04-10T01:38:32.544Z,9.46
2023-04-10T01:41:38.320Z,9.65
2023-04-10T01:44:47.864Z,9.60
2023-04-10T01:47:52.959Z,9.63
2023-04-10T01:50:57.892Z,9.60
2023-04-10T01:54:05.741Z,9.48
2023-04-10T01:57:14.181Z,9.27
2023-04-10T02:00:41.337Z,9.20
2023-04-10T02:03:45.386Z,8.91
2023-04-10T02:06:58.957Z,8.98
2023-04-10T02:10:11.085Z,8.84
2023-04-10T02:13:19.583Z,8.90
2023-04-10T02:16:25.294Z,8.83
2023-04-10T02:19:30.237Z,8.87
2023-04-10T02:22:34.403Z,8.69
2023-04-10T02:25:38.719Z,8.57
2023-04-10T02:28:42.328Z,8.70
2023-04-10T02:31:48.328Z,8.80
2023-04-10T02:34:51.990Z,8.80
2023-04-10T02:37:56.332Z,8.84
2023-04-10T02:41:00.168Z,8.78
2023-04-10T02:44:04.248Z,8.97
2023-04-10T02:47:09.319Z,8.98
2023-04-10T02:50:17.508Z,8.99
2023-04-10T02:53:23.257Z,8.86
2023-04-10T02:56:31.029Z,8.83
2023-04-10T02:59:34.669Z,8.79
2023-04-10T03:02:42.376Z,8.83
2023-04-10T03:05:52.578Z,8.70
2023-04-10T03:09:02.504Z,8.46
2023-04-10T03:12:05.990Z,8.49
2023-04-10T03:15:10.565Z,8.51
2023-04-10T03:18:15.596Z,8.44
2023-04-10T03:21:22.095Z,8.37
2023-04-10T03:24:27.200Z,8.33
2023-04-10T03:27:34.909Z,8.48
2023-04-10T03:30:39.333Z,8.11
2023-04-10T03:33:44.762Z,8.21
2023-04-10T03:36:48.521Z,8.13
2023-04-10T03:39:52.460Z,8.19
2023-04-10T03:42:56.120Z,8.12
2023-04-10T03:46:02.190Z,8.34
2023-04-10T03:49:07.774Z,8.27
2023-04-10T03:52:12.153Z,8.11
2023-04-10T03:55:19.101Z,8.23
2023-04-10T03:58:24.321Z,8.15
2023-04-10T04:01:30.686Z,7.99
2023-04-10T04:04:41.696Z,8.36
2023-04-10T04:08:13.689Z,8.43
2023-04-10T04:11:35.761Z,8.37
2023-04-10T04:14:44.888Z,8.44
2023-04-10T04:18:07.958Z,8.20
2023-04-10T04:21:15.798Z,8.39
2023-04-10T04:24:38.451Z,8.32
2023-04-10T04:27:52.323Z,8.07
2023-04-10T04:31:15.055Z,8.37
2023-04-10T04:34:36.889Z,8.38
2023-04-10T04:37:49.744Z,8.59
2023-04-10T04:41:05.634Z,8.41
2023-04-10T04:44:30.005Z,8.55
2023-04-10T04:47:53.906Z,8.40
2023-04-10T04:51:04.826Z,8.29
2023-04-10T04:54:38.937Z,8.27
2023-04-10T04:58:01.534Z,8.18
2023-04-10T05:01:23.431Z,8.16
2023-04-10T05:04:46.707Z,8.33
2023-04-10T05:08:13.669Z,8.08
2023-04-10T05:11:38.947Z,8.42
2023-04-10T05:14:51.355Z,8.10
2023-04-10T05:18:19.743Z,8.14
2023-04-10T05:21:49.719Z,8.24
2023-04-10T05:25:21.922Z,8.15
2023-04-10T05:28:41.220Z,8.24
2023-04-10T05:32:01.115Z,7.72
2023-04-10T05:35:21.859Z,7.67
2023-04-10T05:38:33.960Z,7.61
2023-04-10T05:41:49.720Z,7.55
2023-04-10T05:45:04.640Z,7.62
2023-04-10T05:48:26.592Z,7.80
2023-04-10T05:51:59.489Z,7.69
2023-04-10T05:55:28.174Z,7.74
2023-04-10T05:58:53.600Z,7.83
2023-04-10T06:02:17.530Z,7.49
2023-04-10T06:05:22.953Z,7.69
2023-04-10T06:08:34.722Z,7.69
2023-04-10T06:11:39.116Z,7.66
2023-04-10T06:14:43.001Z,8.04
2023-04-10T06:17:48.889Z,8.21
2023-04-10T06:20:52.515Z,8.24
2023-04-10T06:23:57.092Z,8.35
2023-04-10T06:27:00.994Z,8.60
2023-04-10T06:30:06.306Z,8.61
2023-04-10T06:33:11.324Z,8.67
2023-04-10T06:36:21.093Z,8.70
2023-04-10T06:39:32.381Z,8.66
2023-04-10T06:42:36.470Z,8.71
2023-04-10T06:45:49.021Z,8.18
2023-04-10T06:48:54.790Z,8.24
2023-04-10T06:51:58.818Z,8.00
2023-04-10T06:55:02.741Z,8.24
2023-04-10T06:58:06.268Z,8.29
2023-04-10T07:01:10.478Z,8.26
2023-04-10T07:04:15.520Z,8.36
2023-04-10T07:07:19.566Z,8.24
2023-04-10T07:10:23.116Z,8.44
2023-04-10T07:13:27.030Z,8.34
2023-04-10T07:16:31.014Z,8.45
2023-04-10T07:19:38.113Z,8.35
2023-04-10T07:22:41.760Z,8.55
2023-04-10T07:25:46.094Z,8.51
2023-04-10T07:28:49.859Z,8.65
2023-04-10T07:31:53.997Z,8.40
2023-04-10T07:34:58.881Z,8.72
2023-04-10T07:38:03.145Z,8.85
2023-04-10T07:41:07.222Z,8.50
2023-04-10T07:44:11.427Z,8.52
2023-04-10T07:47:15.284Z,8.79
2023-04-10T07:50:30.486Z,8.86
2023-04-10T07:53:40.903Z,8.59
2023-04-10T07:56:49.078Z,8.79
2023-04-10T07:59:59.822Z,8.94
2023-04-10T08:03:05.934Z,8.91
2023-04-10T08:06:11.769Z,8.68
2023-04-10T08:09:17.569Z,8.62
2023-04-10T08:12:21.154Z,8.74
2023-04-10T08:15:25.369Z,8.82
2023-04-10T08:18:28.764Z,8.63
2023-04-10T08:21:34.341Z,8.77
2023-04-10T08:24:38.059Z,8.76
2023-04-10T08:27:47.738Z,8.92
2023-04-10T08:30:54.931Z,8.67
2023-04-10T08:33:59.373Z,8.93
2023-04-10T08:37:06.778Z,9.09
2023-04-10T08:40:12.282Z,8.59
2023-04-10T08:43:15.960Z,8.85
2023-04-10T08:46:22.523Z,9.21
2023-04-10T08:49:33.738Z,9.43
2023-04-10T08:52:44.762Z,9.01
2023-04-10T08:55:48.507Z,9.24
2023-04-10T08:58:53.610Z,9.31
2023-04-10T09:01:57.630Z,9.30
2023-04-10T09:05:04.882Z,9.36
2023-04-10T09:08:11.062Z,9.43
2023-04-10T09:11:18.233Z,9.38
2023-04-10T09:14:22.441Z,9.74
2023-04-10T09:17:26.369Z,9.76
2023-04-10T09:20:32.318Z,9.73
2023-04-10T09:23:37.663Z,9.28
2023-04-10T09:26:41.011Z,9.34
2023-04-10T09:29:49.128Z,9.48
2023-04-10T09:32:52.719Z,9.21
2023-04-10T09:36:00.046Z,9.45
2023-04-10T09:39:05.492Z,9.57
2023-04-10T09:42:09.917Z,9.57
2023-04-10T09:45:13.658Z,9.65
2023-04-10T09:48:19.438Z,9.48
2023-04-10T09:51:31.178Z,9.56
2023-04-10T09:54:40.148Z,9.87
2023-04-10T09:57:45.413Z,9.96
2023-04-10T10:00:53.410Z,9.97
2023-04-10T10:03:58.722Z,9.65
2023-04-10T10:07:03.184Z,10.00
2023-04-10T10:10:10.394Z,10.23
2023-04-10T10:13:19.288Z,10.22
2023-04-10T10:16:28.300Z,10.11
2023-04-10T10:19:39.946Z,10.13
2023-04-10T10:22:44.179Z,10.37
2023-04-10T10:25:50.744Z,10.27
2023-04-10T10:28:55.299Z,9.97
2023-04-10T10:32:02.977Z,10.12
2023-04-10T10:35:07.959Z,10.27
2023-04-10T10:38:12.590Z,10.19
2023-04-10T10:41:24.804Z,10.29
2023-04-10T10:44:38.290Z,9.88
2023-04-10T10:47:45.962Z,10.12
2023-04-10T10:50:56.407Z,9.95
2023-04-10T10:53:59.914Z,10.07
2023-04-10T10:57:09.265Z,10.03
2023-04-10T11:00:13.620Z,9.98
2023-04-10T11:03:29.282Z,9.56
2023-04-10T11:06:53.301Z,10.03
2023-04-10T11:09:57.823Z,9.98
2023-04-10T11:13:19.091Z,10.04
2023-04-10T11:16:24.653Z,10.05
2023-04-10T11:19:28.487Z,10.01
2023-04-10T11:22:32.561Z,10.00
2023-04-10T11:25:53.203Z,10.32
2023-04-10T11:28:58.995Z,10.67
2023-04-10T11:32:03.845Z,10.44
2023-04-10T11:35:08.871Z,10.53
2023-04-10T11:38:14.765Z,10.33
2023-04-10T11:41:18.764Z,10.43
2023-04-10T11:44:32.003Z,10.44
2023-04-10T11:47:36.446Z,10.43
2023-04-10T11:50:40.224Z,10.46
2023-04-10T11:54:07.191Z,10.77
2023-04-10T11:57:12.907Z,10.69
2023-04-10T12:00:25.933Z,11.07
2023-04-10T12:03:40.054Z,11.02
2023-04-10T12:06:46.989Z,11.02
2023-04-10T12:09:57.679Z,10.89
2023-04-10T12:13:02.146Z,10.89
2023-04-10T12:16:09.610Z,11.01
2023-04-10T12:19:15.498Z,11.25
2023-04-10T12:22:19.990Z,11.01
2023-04-10T12:25:23.905Z,10.84
2023-04-10T12:28:28.058Z,10.65
2023-04-10T12:31:35.695Z,10.99
2023-04-10T12:34:39.854Z,11.12
2023-04-10T12:37:51.233Z,10.93
2023-04-10T12:41:00.772Z,11.04
2023-04-10T12:44:10.058Z,11.09
2023-04-10T12:47:15.017Z,11.08
2023-04-10T12:50:20.852Z,11.16
2023-04-10T12:53:25.566Z,11.26
2023-04-10T12:56:41.357Z,11.28
2023-04-10T12:59:44.916Z,11.27
2023-04-10T13:02:50.356Z,11.27
2023-04-10T13:05:54.666Z,11.57
2023-04-10T13:08:58.489Z,11.61
2023-04-10T13:12:02.023Z,11.28
2023-04-10T13:15:07.710Z,11.54
2023-04-10T13:18:13.326Z,11.74
2023-04-10T13:21:22.687Z,11.62
2023-04-10T13:24:26.289Z,11.79
2023-04-10T13:27:30.184Z,11.59
2023-04-10T13:30:33.744Z,11.68
2023-04-10T13:33:39.191Z,11.64
2023-04-10T13:36:42.831Z,11.87
2023-04-10T13:39:47.283Z,11.79
2023-04-10T13:42:50.819Z,11.44
2023-04-10T13:45:54.781Z,11.65
2023-04-10T13:48:59.882Z,11.67
2023-04-10T13:52:04.033Z,11.89
2023-04-10T13:55:09.045Z,12.04
2023-04-10T13:58:13.491Z,12.00
2023-04-10T14:01:17.057Z,12.23
2023-04-10T14:04:22.434Z,12.09
2023-04-10T14:07:25.921Z,12.22
2023-04-10T14:10:30.168Z,12.29
2023-04-10T14:13:33.634Z,12.02
2023-04-10T14:16:37.431Z,11.75
2023-04-10T14:19:43.373Z,11.89
2023-04-10T14:22:47.824Z,11.96
2023-04-10T14:25:52.146Z,11.51
2023-04-10T14:28:56.159Z,11.68
2023-04-10T14:32:00.034Z,11.81
2023-04-10T14:35:06.030Z,11.84
2023-04-10T14:38:11.183Z,11.62
2023-04-10T14:41:15.145Z,11.49
2023-04-10T14:44:19.096Z,11.29
2023-04-10T14:47:24.138Z,11.74
2023-04-10T14:50:29.569Z,11.78
2023-04-10T14:53:33.827Z,12.08
2023-04-10T14:56:38.011Z,12.30
2023-04-10T14:59:42.048Z,12.14
2023-04-10T15:02:46.311Z,11.95
2023-04-10T15:06:00.298Z,12.14
2023-04-10T15:09:04.711Z,12.21
2023-04-10T15:12:09.007Z,11.99
2023-04-10T15:15:12.854Z,11.43
2023-04-10T15:18:17.184Z,10.69
2023-04-10T15:21:22.029Z,9.30
2023-04-10T15:24:25.943Z,9.24
2023-04-10T15:27:31.972Z,9.20
2023-04-10T15:34:04.607Z,8.89
2023-04-10T15:37:09.863Z,9.19
2023-04-10T15:40:13.640Z,9.50
2023-04-10T15:43:19.214Z,9.50
2023-04-10T15:46:22.795Z,9.87
2023-04-10T15:49:37.262Z,9.94
2023-04-10T15:52:43.570Z,10.24
2023-04-10T15:55:48.176Z,10.36
2023-04-10T15:59:10.963Z,10.62
2023-04-10T16:02:14.963Z,10.80
2023-04-10T16:05:18.908Z,10.92
2023-04-10T16:08:24.729Z,10.99
2023-04-10T16:11:28.287Z,10.98
2023-04-10T16:14:33.201Z,10.90
2023-04-10T16:17:39.736Z,11.06
2023-04-10T16:20:44.191Z,11.03
2023-04-10T16:23:49.294Z,11.16
2023-04-10T16:26:54.299Z,11.16
2023-04-10T16:29:58.461Z,11.32
2023-04-10T16:33:04.214Z,11.31
2023-04-10T16:36:09.310Z,11.31
2023-04-10T16:39:15.606Z,11.13
2023-04-10T16:42:19.989Z,11.24
2023-04-10T16:45:24.156Z,11.24
2023-04-10T16:48:28.231Z,11.12
2023-04-10T16:51:32.629Z,11.08
2023-04-10T16:54:38.256Z,10.93
2023-04-10T16:57:43.307Z,11.03
2023-04-10T17:00:46.851Z,10.99
2023-04-10T17:03:50.750Z,10.94
2023-04-10T17:06:54.425Z,10.86
2023-04-10T17:10:00.508Z,10.80
2023-04-10T17:13:04.063Z,10.76
2023-04-10T17:16:09.445Z,10.77
2023-04-10T17:19:13.574Z,10.76
2023-04-10T17:22:18.116Z,10.73
2023-04-10T17:25:24.011Z,10.70
2023-04-10T17:28:29.134Z,10.57
2023-04-10T17:31:32.854Z,10.40
2023-04-10T17:34:37.276Z,10.37
2023-04-10T17:37:40.932Z,10.31
2023-04-10T17:40:46.800Z,10.29
2023-04-10T17:43:51.931Z,10.35
2023-04-10T17:46:58.631Z,10.37
2023-04-10T17:50:02.524Z,10.26
2023-04-10T17:53:06.850Z,10.13
2023-04-10T17:56:21.030Z,10.16
2023-04-10T17:59:25.009Z,10.10
2023-04-10T18:02:28.824Z,10.08
2023-04-10T18:05:34.786Z,10.09
2023-04-10T18:08:38.777Z,9.90
2023-04-10T18:11:44.400Z,9.74
2023-04-10T18:14:49.743Z,9.77
2023-04-10T18:17:55.837Z,9.68
2023-04-10T18:20:59.847Z,9.53
2023-04-10T18:24:09.547Z,9.28
2023-04-10T18:27:18.776Z,9.16
2023-04-10T18:30:23.543Z,9.05
2023-04-10T18:33:28.093Z,9.01
2023-04-10T18:36:32.437Z,8.94
2023-04-10T18:39:38.429Z,8.75
2023-04-10T18:42:44.501Z,8.59
2023-04-10T18:45:48.290Z,8.42
2023-04-10T18:48:54.624Z,8.74
2023-04-10T18:51:58.497Z,8.68
2023-04-10T18:55:02.489Z,8.72
2023-04-10T18:58:07.830Z,8.68
2023-04-10T19:01:12.531Z,8.65
2023-04-10T19:04:16.997Z,8.63
2023-04-10T19:07:21.670Z,8.40
2023-04-10T19:10:25.271Z,8.32
2023-04-10T19:13:31.270Z,8.48
2023-04-10T19:16:35.176Z,8.47
2023-04-10T19:19:39.601Z,8.30
2023-04-10T19:22:43.190Z,8.55
2023-04-10T19:25:47.361Z,8.63
2023-04-10T19:28:52.268Z,8.60
2023-04-10T19:31:56.057Z,8.31
2023-04-10T19:34:59.588Z,8.26
2023-04-10T19:38:03.512Z,8.39
2023-04-10T19:41:14.759Z,8.32
2023-04-10T19:44:31.956Z,8.31
2023-04-10T19:47:44.361Z,8.37
2023-04-10T19:50:55.602Z,8.47
2023-04-10T19:53:59.386Z,8.67
2023-04-10T19:57:03.748Z,8.20
2023-04-10T20:00:15.728Z,8.53
2023-04-10T20:03:26.806Z,8.51
2023-04-10T20:06:31.943Z,8.49
2023-04-10T20:09:36.251Z,8.53
2023-04-10T20:12:40.434Z,8.58
2023-04-10T20:15:47.846Z,8.51
2023-04-10T20:18:56.021Z,8.66
2023-04-10T20:22:02.596Z,8.74
2023-04-10T20:25:08.009Z,8.70
2023-04-10T20:28:12.053Z,8.79
2023-04-10T20:31:17.210Z,8.43
2023-04-10T20:34:21.336Z,8.48
2023-04-10T20:37:25.553Z,8.17
2023-04-10T20:40:29.911Z,7.79
2023-04-10T20:43:33.949Z,8.17
2023-04-10T20:46:40.444Z,8.38
2023-04-10T20:49:44.273Z,8.55
2023-04-10T20:52:48.084Z,8.68
2023-04-10T20:55:54.067Z,8.77
2023-04-10T20:58:58.524Z,8.75
2023-04-10T21:02:03.501Z,8.60
2023-04-10T21:05:07.734Z,8.54
2023-04-10T21:08:12.640Z,8.67
2023-04-10T21:11:16.744Z,8.62
2023-04-10T21:14:20.378Z,8.74
2023-04-10T21:17:29.040Z,8.69
2023-04-10T21:20:33.898Z,8.62
2023-04-10T21:23:37.720Z,8.36
2023-04-10T21:26:41.165Z,8.44
2023-04-10T21:29:45.187Z,8.48
2023-04-10T21:32:50.270Z,8.47
2023-04-10T21:35:54.436Z,8.35
2023-04-10T21:38:58.107Z,8.43
2023-04-10T21:42:02.586Z,8.38
2023-04-10T21:45:07.019Z,8.31
2023-04-10T21:48:12.942Z,8.23
2023-04-10T21:51:16.588Z,8.22
2023-04-10T21:54:20.798Z,7.99
2023-04-10T21:57:24.480Z,7.91
2023-04-10T22:00:28.990Z,8.03
2023-04-10T22:03:34.072Z,8.08
2023-04-10T22:06:38.093Z,7.95
2023-04-10T22:09:41.608Z,7.79
2023-04-10T22:12:48.549Z,7.81
2023-04-10T22:15:52.546Z,7.76
2023-04-10T22:18:57.776Z,7.76
2023-04-10T22:22:01.176Z,7.67
2023-04-10T22:25:05.390Z,7.61
2023-04-10T22:28:08.882Z,7.71
2023-04-10T22:31:16.660Z,7.66
2023-04-10T22:34:21.689Z,7.67
2023-04-10T22:37:25.537Z,7.55
2023-04-10T22:40:29.100Z,7.49
2023-04-10T22:43:34.900Z,7.55
2023-04-10T22:46:39.672Z,7.65
2023-04-10T22:49:44.875Z,7.55
2023-04-10T22:52:48.417Z,7.68
2023-04-10T22:55:52.239Z,7.69
2023-04-10T22:58:56.070Z,7.66
2023-04-10T23:02:00.800Z,7.56
2023-04-10T23:05:06.440Z,7.46
2023-04-10T23:08:10.509Z,7.38
2023-04-10T23:11:13.982Z,7.48
2023-04-10T23:14:18.200Z,7.27
2023-04-10T23:17:21.898Z,7.59
2023-04-10T23:20:27.545Z,7.71
2023-04-10T23:23:31.342Z,7.56
2023-04-10T23:26:35.818Z,7.45
2023-04-10T23:29:39.477Z,7.52
2023-04-10T23:32:43.423Z,7.43
2023-04-10T23:35:48.459Z,7.59
2023-04-10T23:38:53.078Z,7.60
2023-04-10T23:41:57.395Z,7.37
2023-04-10T23:45:01.567Z,7.67
2023-04-10T23:48:07.597Z,7.71
2023-04-10T23:51:13.366Z,7.83
2023-04-10T23:54:16.987Z,7.88
2023-04-10T23:57:21.302Z,7.89
